Ana Sayfa
METAR-TAF:

METAR-TAF

Havaalanları :

Salinas, Ekvador

Enlem: 02-12-18S, Boylam: 080-59-20W, yükseklik: 5 m

Güncel hava durumu gözlemi

Rapor saat 20:00 UTC de 33 dakika önce yapıldı.
Rüzgar batıdan 5 kt
Sıcaklık 29°C
Nem 74%
Basınç 1008 hPa
Görüş mesafesi 10 km veya daha fazla
1500 m altında bulut yok ve kümülonimbus yok

METAR: SESA 312000Z 26005KT CAVOK 29/24 Q1008 RMK A2978

Saat: 15:33 (20:33 UTC)


TAF: eksik

4.000'den fazla havaalanı için hava durumu gözlemleri ve tahminleri (METAR ve TAF raporları).

Kullanılabilir istasyonlar harita üzerinde sarı ve kırmızı noktalarla gösterilir.

İstasyonun adını görmek için fareyi noktanın üzerinde gezdirin.

Sonrasında hava gözlem ve tahminlerini görmek için tıklayın.

Haritayı değiştirmek için: yaklaştırmak için siyah artı işaretli yeşil düğmeye ve uzaklaştırmak için de eksi işaretli düğmeye hızla tıklayın; bitişik haritalar için yeşil okları kullanın.


METAR-TAF: